sensor_id;sensor_type;location;lat;lon;timestamp;P1;durP1;ratioP1;P2;durP2;ratioP2
56680;SDS011;42558;52.388;13.390;2022-08-16T00:00:28;23.56;;;18.81;;
56680;SDS011;42558;52.388;13.390;2022-08-16T00:03:05;20.14;;;17.86;;
56680;SDS011;42558;52.388;13.390;2022-08-16T00:05:41;22.80;;;17.86;;
56680;SDS011;42558;52.388;13.390;2022-08-16T00:08:14;24.13;;;18.62;;
56680;SDS011;42558;52.388;13.390;2022-08-16T00:11:03;24.13;;;18.81;;
56680;SDS011;42558;52.388;13.390;2022-08-16T00:13:31;20.52;;;17.86;;
56680;SDS011;42558;52.388;13.390;2022-08-16T00:16:08;23.94;;;18.81;;
56680;SDS011;42558;52.388;13.390;2022-08-16T00:18:57;25.08;;;18.62;;
56680;SDS011;42558;52.388;13.390;2022-08-16T00:21:25;22.04;;;18.81;;
56680;SDS011;42558;52.388;13.390;2022-08-16T00:23:55;23.37;;;18.81;;
56680;SDS011;42558;52.388;13.390;2022-08-16T00:26:24;22.99;;;18.43;;
56680;SDS011;42558;52.388;13.390;2022-08-16T00:29:04;25.84;;;19.00;;
56680;SDS011;42558;52.388;13.390;2022-08-16T00:31:32;26.03;;;22.42;;
56680;SDS011;42558;52.388;13.390;2022-08-16T00:34:22;26.98;;;19.95;;
56680;SDS011;42558;52.388;13.390;2022-08-16T00:37:09;24.13;;;19.38;;
56680;SDS011;42558;52.388;13.390;2022-08-16T00:39:36;28.31;;;21.47;;
56680;SDS011;42558;52.388;13.390;2022-08-16T00:42:05;25.27;;;20.14;;
56680;SDS011;42558;52.388;13.390;2022-08-16T00:44:36;27.55;;;20.52;;
56680;SDS011;42558;52.388;13.390;2022-08-16T00:47:09;27.36;;;21.28;;
56680;SDS011;42558;52.388;13.390;2022-08-16T00:49:42;25.46;;;19.57;;
56680;SDS011;42558;52.388;13.390;2022-08-16T00:52:10;26.60;;;19.76;;
56680;SDS011;42558;52.388;13.390;2022-08-16T00:54:57;26.22;;;20.90;;
56680;SDS011;42558;52.388;13.390;2022-08-16T00:57:26;25.46;;;20.90;;
56680;SDS011;42558;52.388;13.390;2022-08-16T01:00:14;26.41;;;19.38;;
56680;SDS011;42558;52.388;13.390;2022-08-16T01:02:50;30.21;;;21.28;;
56680;SDS011;42558;52.388;13.390;2022-08-16T01:05:18;25.65;;;20.33;;
56680;SDS011;42558;52.388;13.390;2022-08-16T01:07:49;30.97;;;21.28;;
56680;SDS011;42558;52.388;13.390;2022-08-16T01:10:24;28.12;;;22.23;;
56680;SDS011;42558;52.388;13.390;2022-08-16T01:13:06;25.84;;;20.90;;
56680;SDS011;42558;52.388;13.390;2022-08-16T01:15:44;29.45;;;20.71;;
56680;SDS011;42558;52.388;13.390;2022-08-16T01:18:21;26.03;;;21.09;;
56680;SDS011;42558;52.388;13.390;2022-08-16T01:21:34;27.55;;;21.47;;
56680;SDS011;42558;52.388;13.390;2022-08-16T01:24:42;42.37;;;22.80;;
56680;SDS011;42558;52.388;13.390;2022-08-16T01:27:24;24.89;;;18.62;;
56680;SDS011;42558;52.388;13.390;2022-08-16T01:32:48;25.65;;;19.76;;
56680;SDS011;42558;52.388;13.390;2022-08-16T01:35:58;25.46;;;20.14;;
56680;SDS011;42558;52.388;13.390;2022-08-16T01:38:40;22.23;;;19.38;;
56680;SDS011;42558;52.388;13.390;2022-08-16T01:41:20;26.41;;;19.95;;
56680;SDS011;42558;52.388;13.390;2022-08-16T01:43:51;25.46;;;20.71;;
56680;SDS011;42558;52.388;13.390;2022-08-16T01:46:22;33.82;;;21.85;;
56680;SDS011;42558;52.388;13.390;2022-08-16T01:49:27;25.46;;;19.00;;
56680;SDS011;42558;52.388;13.390;2022-08-16T01:52:15;23.18;;;19.95;;
56680;SDS011;42558;52.388;13.390;2022-08-16T01:54:56;24.13;;;18.62;;
56680;SDS011;42558;52.388;13.390;2022-08-16T01:57:26;25.84;;;21.09;;
56680;SDS011;42558;52.388;13.390;2022-08-16T01:59:57;25.27;;;19.76;;
56680;SDS011;42558;52.388;13.390;2022-08-16T02:02:25;24.51;;;19.19;;
56680;SDS011;42558;52.388;13.390;2022-08-16T02:04:55;26.60;;;20.33;;
56680;SDS011;42558;52.388;13.390;2022-08-16T02:07:25;23.75;;;19.19;;
56680;SDS011;42558;52.388;13.390;2022-08-16T02:09:53;24.89;;;20.14;;
56680;SDS011;42558;52.388;13.390;2022-08-16T02:12:25;25.08;;;19.95;;
56680;SDS011;42558;52.388;13.390;2022-08-16T02:15:15;24.32;;;19.57;;
56680;SDS011;42558;52.388;13.390;2022-08-16T02:17:55;24.13;;;19.19;;
56680;SDS011;42558;52.388;13.390;2022-08-16T02:20:29;26.98;;;22.61;;
56680;SDS011;42558;52.388;13.390;2022-08-16T02:23:01;26.79;;;23.18;;
56680;SDS011;42558;52.388;13.390;2022-08-16T02:25:32;34.20;;;22.80;;
56680;SDS011;42558;52.388;13.390;2022-08-16T02:28:17;29.64;;;20.52;;
56680;SDS011;42558;52.388;13.390;2022-08-16T02:30:45;27.93;;;21.09;;
56680;SDS011;42558;52.388;13.390;2022-08-16T02:33:19;28.31;;;20.52;;
56680;SDS011;42558;52.388;13.390;2022-08-16T02:36:08;26.98;;;19.95;;
56680;SDS011;42558;52.388;13.390;2022-08-16T02:38:40;23.75;;;18.62;;
56680;SDS011;42558;52.388;13.390;2022-08-16T02:41:08;25.46;;;21.09;;
56680;SDS011;42558;52.388;13.390;2022-08-16T02:43:38;25.46;;;19.95;;
56680;SDS011;42558;52.388;13.390;2022-08-16T02:46:07;24.51;;;20.14;;
56680;SDS011;42558;52.388;13.390;2022-08-16T02:48:36;24.32;;;19.38;;
56680;SDS011;42558;52.388;13.390;2022-08-16T02:51:07;25.84;;;20.90;;
56680;SDS011;42558;52.388;13.390;2022-08-16T02:53:42;24.51;;;18.81;;
56680;SDS011;42558;52.388;13.390;2022-08-16T02:56:12;27.55;;;19.57;;
56680;SDS011;42558;52.388;13.390;2022-08-16T02:58:43;24.13;;;18.81;;
56680;SDS011;42558;52.388;13.390;2022-08-16T03:01:13;23.18;;;19.00;;
56680;SDS011;42558;52.388;13.390;2022-08-16T03:04:03;22.99;;;18.62;;
56680;SDS011;42558;52.388;13.390;2022-08-16T03:06:52;24.70;;;18.62;;
56680;SDS011;42558;52.388;13.390;2022-08-16T03:09:23;21.47;;;19.00;;
56680;SDS011;42558;52.388;13.390;2022-08-16T03:11:55;24.70;;;20.90;;
56680;SDS011;42558;52.388;13.390;2022-08-16T03:14:23;29.83;;;20.33;;
56680;SDS011;42558;52.388;13.390;2022-08-16T03:16:51;23.75;;;19.76;;
56680;SDS011;42558;52.388;13.390;2022-08-16T03:19:27;23.75;;;19.00;;
56680;SDS011;42558;52.388;13.390;2022-08-16T03:22:17;22.80;;;19.19;;
56680;SDS011;42558;52.388;13.390;2022-08-16T03:24:56;24.13;;;18.05;;
56680;SDS011;42558;52.388;13.390;2022-08-16T03:27:28;22.80;;;18.62;;
56680;SDS011;42558;52.388;13.390;2022-08-16T03:30:05;23.75;;;19.76;;
56680;SDS011;42558;52.388;13.390;2022-08-16T03:32:46;23.37;;;19.19;;
56680;SDS011;42558;52.388;13.390;2022-08-16T03:35:19;24.70;;;18.43;;
56680;SDS011;42558;52.388;13.390;2022-08-16T03:37:53;24.13;;;20.33;;
56680;SDS011;42558;52.388;13.390;2022-08-16T03:40:31;26.60;;;19.57;;
56680;SDS011;42558;52.388;13.390;2022-08-16T03:43:05;26.79;;;21.85;;
56680;SDS011;42558;52.388;13.390;2022-08-16T03:45:47;27.55;;;20.52;;
56680;SDS011;42558;52.388;13.390;2022-08-16T03:48:19;28.12;;;20.52;;
56680;SDS011;42558;52.388;13.390;2022-08-16T03:51:08;22.80;;;19.00;;
56680;SDS011;42558;52.388;13.390;2022-08-16T03:53:39;24.89;;;19.57;;
56680;SDS011;42558;52.388;13.390;2022-08-16T03:56:09;25.46;;;19.38;;
56680;SDS011;42558;52.388;13.390;2022-08-16T03:58:47;28.12;;;19.57;;
56680;SDS011;42558;52.388;13.390;2022-08-16T04:01:17;24.51;;;20.52;;
56680;SDS011;42558;52.388;13.390;2022-08-16T04:03:44;25.65;;;21.09;;
56680;SDS011;42558;52.388;13.390;2022-08-16T04:06:11;22.99;;;19.00;;
56680;SDS011;42558;52.388;13.390;2022-08-16T04:08:41;25.27;;;19.76;;
56680;SDS011;42558;52.388;13.390;2022-08-16T04:11:10;25.08;;;19.19;;
56680;SDS011;42558;52.388;13.390;2022-08-16T04:13:42;25.65;;;20.33;;
56680;SDS011;42558;52.388;13.390;2022-08-16T04:16:30;22.80;;;18.24;;
56680;SDS011;42558;52.388;13.390;2022-08-16T04:18:59;20.71;;;17.86;;
56680;SDS011;42558;52.388;13.390;2022-08-16T04:21:34;21.47;;;17.67;;
56680;SDS011;42558;52.388;13.390;2022-08-16T04:24:13;22.61;;;17.10;;
56680;SDS011;42558;52.388;13.390;2022-08-16T04:26:40;22.42;;;17.86;;
56680;SDS011;42558;52.388;13.390;2022-08-16T04:29:15;24.51;;;19.00;;
56680;SDS011;42558;52.388;13.390;2022-08-16T04:31:51;23.18;;;18.62;;
56680;SDS011;42558;52.388;13.390;2022-08-16T04:34:33;24.32;;;19.38;;
56680;SDS011;42558;52.388;13.390;2022-08-16T04:37:04;23.94;;;19.57;;
56680;SDS011;42558;52.388;13.390;2022-08-16T04:39:34;26.79;;;19.57;;
56680;SDS011;42558;52.388;13.390;2022-08-16T04:42:17;24.70;;;20.33;;
56680;SDS011;42558;52.388;13.390;2022-08-16T04:44:52;26.03;;;20.52;;
56680;SDS011;42558;52.388;13.390;2022-08-16T04:47:26;31.92;;;23.56;;
56680;SDS011;42558;52.388;13.390;2022-08-16T04:50:19;30.02;;;24.89;;
56680;SDS011;42558;52.388;13.390;2022-08-16T04:52:56;30.78;;;24.70;;
56680;SDS011;42558;52.388;13.390;2022-08-16T04:55:26;32.87;;;25.84;;
56680;SDS011;42558;52.388;13.390;2022-08-16T04:58:05;34.20;;;26.41;;
56680;SDS011;42558;52.388;13.390;2022-08-16T05:00:53;33.06;;;25.08;;
56680;SDS011;42558;52.388;13.390;2022-08-16T05:03:22;29.64;;;23.94;;
56680;SDS011;42558;52.388;13.390;2022-08-16T05:05:52;32.87;;;26.60;;
56680;SDS011;42558;52.388;13.390;2022-08-16T05:08:27;36.48;;;27.93;;
56680;SDS011;42558;52.388;13.390;2022-08-16T05:10:58;34.39;;;27.93;;
56680;SDS011;42558;52.388;13.390;2022-08-16T05:13:32;34.96;;;27.17;;
56680;SDS011;42558;52.388;13.390;2022-08-16T05:16:13;33.44;;;28.12;;
56680;SDS011;42558;52.388;13.390;2022-08-16T05:18:48;33.44;;;27.36;;
56680;SDS011;42558;52.388;13.390;2022-08-16T05:21:17;31.92;;;25.08;;
56680;SDS011;42558;52.388;13.390;2022-08-16T05:23:48;37.05;;;30.21;;
56680;SDS011;42558;52.388;13.390;2022-08-16T05:26:23;36.48;;;30.40;;
56680;SDS011;42558;52.388;13.390;2022-08-16T05:28:55;40.47;;;32.30;;
56680;SDS011;42558;52.388;13.390;2022-08-16T05:31:24;36.67;;;31.16;;
56680;SDS011;42558;52.388;13.390;2022-08-16T05:33:57;36.29;;;29.83;;
56680;SDS011;42558;52.388;13.390;2022-08-16T05:36:26;38.00;;;30.59;;
56680;SDS011;42558;52.388;13.390;2022-08-16T05:39:06;39.71;;;32.49;;
56680;SDS011;42558;52.388;13.390;2022-08-16T05:41:36;44.08;;;33.63;;
56680;SDS011;42558;52.388;13.390;2022-08-16T05:44:15;43.13;;;34.39;;
56680;SDS011;42558;52.388;13.390;2022-08-16T05:46:51;35.91;;;28.50;;
56680;SDS011;42558;52.388;13.390;2022-08-16T05:49:20;42.37;;;30.97;;
56680;SDS011;42558;52.388;13.390;2022-08-16T05:51:49;41.61;;;34.58;;
56680;SDS011;42558;52.388;13.390;2022-08-16T05:54:16;45.41;;;33.63;;
56680;SDS011;42558;52.388;13.390;2022-08-16T05:56:52;42.75;;;33.82;;
56680;SDS011;42558;52.388;13.390;2022-08-16T05:59:26;41.42;;;33.25;;
56680;SDS011;42558;52.388;13.390;2022-08-16T06:01:53;42.18;;;33.63;;
56680;SDS011;42558;52.388;13.390;2022-08-16T06:04:21;39.71;;;32.87;;
56680;SDS011;42558;52.388;13.390;2022-08-16T06:07:02;40.28;;;31.35;;
56680;SDS011;42558;52.388;13.390;2022-08-16T06:09:43;37.81;;;28.31;;
56680;SDS011;42558;52.388;13.390;2022-08-16T06:12:15;47.31;;;34.96;;
56680;SDS011;42558;52.388;13.390;2022-08-16T06:14:59;41.42;;;33.63;;
56680;SDS011;42558;52.388;13.390;2022-08-16T06:17:33;43.51;;;32.87;;
56680;SDS011;42558;52.388;13.390;2022-08-16T06:20:13;39.33;;;33.25;;
56680;SDS011;42558;52.388;13.390;2022-08-16T06:22:51;38.57;;;33.82;;
56680;SDS011;42558;52.388;13.390;2022-08-16T06:25:30;31.54;;;25.65;;
56680;SDS011;42558;52.388;13.390;2022-08-16T06:28:06;41.04;;;33.25;;
56680;SDS011;42558;52.388;13.390;2022-08-16T06:30:36;37.43;;;33.44;;
56680;SDS011;42558;52.388;13.390;2022-08-16T06:33:09;35.72;;;31.16;;
56680;SDS011;42558;52.388;13.390;2022-08-16T06:35:38;38.19;;;30.59;;
56680;SDS011;42558;52.388;13.390;2022-08-16T06:38:08;35.91;;;31.35;;
56680;SDS011;42558;52.388;13.390;2022-08-16T06:40:55;34.77;;;28.50;;
56680;SDS011;42558;52.388;13.390;2022-08-16T06:43:22;37.05;;;30.97;;
56680;SDS011;42558;52.388;13.390;2022-08-16T06:45:53;39.14;;;32.68;;
56680;SDS011;42558;52.388;13.390;2022-08-16T06:48:20;36.29;;;30.59;;
56680;SDS011;42558;52.388;13.390;2022-08-16T06:50:59;36.67;;;29.07;;
56680;SDS011;42558;52.388;13.390;2022-08-16T06:53:27;32.49;;;28.31;;
56680;SDS011;42558;52.388;13.390;2022-08-16T06:55:59;35.53;;;29.64;;
56680;SDS011;42558;52.388;13.390;2022-08-16T06:58:27;34.96;;;30.40;;
56680;SDS011;42558;52.388;13.390;2022-08-16T07:00:59;33.82;;;28.88;;
56680;SDS011;42558;52.388;13.390;2022-08-16T07:03:28;35.91;;;30.02;;
56680;SDS011;42558;52.388;13.390;2022-08-16T07:06:16;37.24;;;29.83;;
56680;SDS011;42558;52.388;13.390;2022-08-16T07:08:48;30.97;;;27.36;;
56680;SDS011;42558;52.388;13.390;2022-08-16T07:11:16;34.77;;;29.64;;
56680;SDS011;42558;52.388;13.390;2022-08-16T07:14:06;35.91;;;28.88;;
56680;SDS011;42558;52.388;13.390;2022-08-16T07:16:55;34.20;;;29.83;;
56680;SDS011;42558;52.388;13.390;2022-08-16T07:19:25;34.20;;;29.45;;
56680;SDS011;42558;52.388;13.390;2022-08-16T07:22:14;38.76;;;29.07;;
56680;SDS011;42558;52.388;13.390;2022-08-16T07:25:03;33.06;;;28.12;;
56680;SDS011;42558;52.388;13.390;2022-08-16T07:27:31;33.44;;;26.03;;
56680;SDS011;42558;52.388;13.390;2022-08-16T07:30:04;33.44;;;29.07;;
56680;SDS011;42558;52.388;13.390;2022-08-16T07:32:54;28.88;;;25.08;;
56680;SDS011;42558;52.388;13.390;2022-08-16T07:35:22;44.46;;;29.07;;
56680;SDS011;42558;52.388;13.390;2022-08-16T07:37:50;33.06;;;28.31;;
56680;SDS011;42558;52.388;13.390;2022-08-16T07:40:17;32.30;;;28.88;;
56680;SDS011;42558;52.388;13.390;2022-08-16T07:42:51;34.39;;;29.07;;
56680;SDS011;42558;52.388;13.390;2022-08-16T07:45:18;28.88;;;25.84;;
56680;SDS011;42558;52.388;13.390;2022-08-16T07:47:46;30.78;;;27.36;;
56680;SDS011;42558;52.388;13.390;2022-08-16T07:50:16;32.30;;;28.12;;
56680;SDS011;42558;52.388;13.390;2022-08-16T07:53:04;32.87;;;27.36;;
56680;SDS011;42558;52.388;13.390;2022-08-16T07:55:31;32.49;;;26.22;;
56680;SDS011;42558;52.388;13.390;2022-08-16T07:58:13;33.82;;;28.31;;
56680;SDS011;42558;52.388;13.390;2022-08-16T08:00:59;33.63;;;30.02;;
56680;SDS011;42558;52.388;13.390;2022-08-16T08:03:28;31.73;;;26.41;;
56680;SDS011;42558;52.388;13.390;2022-08-16T08:06:05;31.73;;;27.74;;
56680;SDS011;42558;52.388;13.390;2022-08-16T08:08:37;34.58;;;30.21;;
56680;SDS011;42558;52.388;13.390;2022-08-16T08:11:18;29.64;;;26.60;;
56680;SDS011;42558;52.388;13.390;2022-08-16T08:13:52;32.49;;;28.88;;
56680;SDS011;42558;52.388;13.390;2022-08-16T08:16:20;30.40;;;27.17;;
56680;SDS011;42558;52.388;13.390;2022-08-16T08:18:58;30.78;;;27.55;;
56680;SDS011;42558;52.388;13.390;2022-08-16T08:21:29;33.82;;;28.88;;
56680;SDS011;42558;52.388;13.390;2022-08-16T08:24:19;31.54;;;28.12;;
56680;SDS011;42558;52.388;13.390;2022-08-16T08:26:47;30.78;;;27.17;;
56680;SDS011;42558;52.388;13.390;2022-08-16T08:29:17;31.35;;;26.79;;
56680;SDS011;42558;52.388;13.390;2022-08-16T08:31:51;28.88;;;25.65;;
56680;SDS011;42558;52.388;13.390;2022-08-16T08:34:20;33.82;;;30.21;;
56680;SDS011;42558;52.388;13.390;2022-08-16T08:36:49;31.92;;;28.69;;
56680;SDS011;42558;52.388;13.390;2022-08-16T08:39:20;33.82;;;29.45;;
56680;SDS011;42558;52.388;13.390;2022-08-16T08:41:48;32.30;;;27.36;;
56680;SDS011;42558;52.388;13.390;2022-08-16T08:44:18;33.25;;;28.88;;
56680;SDS011;42558;52.388;13.390;2022-08-16T08:46:58;32.68;;;28.12;;
56680;SDS011;42558;52.388;13.390;2022-08-16T08:49:28;30.78;;;26.79;;
56680;SDS011;42558;52.388;13.390;2022-08-16T08:52:16;30.97;;;27.93;;
56680;SDS011;42558;52.388;13.390;2022-08-16T08:55:07;32.87;;;28.31;;
56680;SDS011;42558;52.388;13.390;2022-08-16T08:57:40;29.07;;;25.65;;
56680;SDS011;42558;52.388;13.390;2022-08-16T09:00:11;32.11;;;28.88;;
56680;SDS011;42558;52.388;13.390;2022-08-16T09:02:41;27.17;;;24.32;;
56680;SDS011;42558;52.388;13.390;2022-08-16T09:05:13;30.21;;;25.65;;
56680;SDS011;42558;52.388;13.390;2022-08-16T09:07:43;33.44;;;27.55;;
56680;SDS011;42558;52.388;13.390;2022-08-16T09:10:29;29.45;;;26.22;;
56680;SDS011;42558;52.388;13.390;2022-08-16T09:12:59;25.84;;;23.18;;
56680;SDS011;42558;52.388;13.390;2022-08-16T09:15:28;27.55;;;24.70;;
56680;SDS011;42558;52.388;13.390;2022-08-16T09:18:00;25.65;;;23.18;;
56680;SDS011;42558;52.388;13.390;2022-08-16T09:20:50;26.03;;;23.37;;
56680;SDS011;42558;52.388;13.390;2022-08-16T09:23:27;26.60;;;23.56;;
56680;SDS011;42558;52.388;13.390;2022-08-16T09:26:03;26.98;;;22.80;;
56680;SDS011;42558;52.388;13.390;2022-08-16T09:28:53;26.98;;;24.13;;
56680;SDS011;42558;52.388;13.390;2022-08-16T09:31:40;21.85;;;19.38;;
56680;SDS011;42558;52.388;13.390;2022-08-16T09:34:07;26.60;;;21.85;;
56680;SDS011;42558;52.388;13.390;2022-08-16T09:36:36;24.70;;;22.23;;
56680;SDS011;42558;52.388;13.390;2022-08-16T09:39:12;25.46;;;22.61;;
56680;SDS011;42558;52.388;13.390;2022-08-16T09:41:42;25.27;;;22.80;;
56680;SDS011;42558;52.388;13.390;2022-08-16T09:44:20;24.32;;;21.85;;
56680;SDS011;42558;52.388;13.390;2022-08-16T09:47:10;24.13;;;20.52;;
56680;SDS011;42558;52.388;13.390;2022-08-16T09:49:36;26.79;;;22.99;;
56680;SDS011;42558;52.388;13.390;2022-08-16T09:52:07;24.51;;;20.90;;
56680;SDS011;42558;52.388;13.390;2022-08-16T09:54:36;25.27;;;22.61;;
56680;SDS011;42558;52.388;13.390;2022-08-16T09:57:10;23.37;;;20.90;;
56680;SDS011;42558;52.388;13.390;2022-08-16T09:59:37;24.89;;;22.04;;
56680;SDS011;42558;52.388;13.390;2022-08-16T10:02:08;24.70;;;22.23;;
56680;SDS011;42558;52.388;13.390;2022-08-16T10:04:54;23.75;;;21.09;;
56680;SDS011;42558;52.388;13.390;2022-08-16T10:07:25;23.56;;;21.28;;
56680;SDS011;42558;52.388;13.390;2022-08-16T10:10:11;23.75;;;21.28;;
56680;SDS011;42558;52.388;13.390;2022-08-16T10:12:56;23.37;;;20.71;;
56680;SDS011;42558;52.388;13.390;2022-08-16T10:15:45;24.32;;;21.66;;
56680;SDS011;42558;52.388;13.390;2022-08-16T10:18:21;23.94;;;19.95;;
56680;SDS011;42558;52.388;13.390;2022-08-16T10:21:09;23.56;;;19.19;;
56680;SDS011;42558;52.388;13.390;2022-08-16T10:23:37;20.71;;;17.29;;
56680;SDS011;42558;52.388;13.390;2022-08-16T10:26:04;20.33;;;18.24;;
56680;SDS011;42558;52.388;13.390;2022-08-16T10:28:51;20.90;;;18.81;;
56680;SDS011;42558;52.388;13.390;2022-08-16T10:31:18;19.00;;;17.10;;
56680;SDS011;42558;52.388;13.390;2022-08-16T10:34:05;21.28;;;19.00;;
56680;SDS011;42558;52.388;13.390;2022-08-16T10:36:52;20.14;;;18.05;;
56680;SDS011;42558;52.388;13.390;2022-08-16T10:39:19;22.99;;;19.57;;
56680;SDS011;42558;52.388;13.390;2022-08-16T10:41:46;20.71;;;16.91;;
56680;SDS011;42558;52.388;13.390;2022-08-16T10:44:13;20.33;;;18.05;;
56680;SDS011;42558;52.388;13.390;2022-08-16T10:46:43;19.00;;;15.58;;
56680;SDS011;42558;52.388;13.390;2022-08-16T10:49:12;17.67;;;14.25;;
56680;SDS011;42558;52.388;13.390;2022-08-16T10:51:44;15.58;;;11.78;;
56680;SDS011;42558;52.388;13.390;2022-08-16T10:54:30;16.91;;;12.92;;
56680;SDS011;42558;52.388;13.390;2022-08-16T10:56:59;14.25;;;12.73;;
56680;SDS011;42558;52.388;13.390;2022-08-16T10:59:32;14.44;;;12.92;;
56680;SDS011;42558;52.388;13.390;2022-08-16T11:02:13;18.81;;;14.44;;
56680;SDS011;42558;52.388;13.390;2022-08-16T11:04:59;14.44;;;12.92;;
56680;SDS011;42558;52.388;13.390;2022-08-16T11:07:38;15.20;;;13.49;;
56680;SDS011;42558;52.388;13.390;2022-08-16T11:10:13;19.00;;;13.68;;
56680;SDS011;42558;52.388;13.390;2022-08-16T11:13:03;15.58;;;14.06;;
56680;SDS011;42558;52.388;13.390;2022-08-16T11:15:56;18.05;;;13.49;;
56680;SDS011;42558;52.388;13.390;2022-08-16T11:18:50;15.20;;;12.73;;
56680;SDS011;42558;52.388;13.390;2022-08-16T11:21:42;15.58;;;13.30;;
56680;SDS011;42558;52.388;13.390;2022-08-16T11:24:33;15.58;;;13.87;;
56680;SDS011;42558;52.388;13.390;2022-08-16T11:27:30;15.96;;;14.25;;
56680;SDS011;42558;52.388;13.390;2022-08-16T11:30:21;15.20;;;13.49;;
56680;SDS011;42558;52.388;13.390;2022-08-16T11:33:12;15.39;;;13.49;;
56680;SDS011;42558;52.388;13.390;2022-08-16T11:36:04;14.63;;;13.11;;
56680;SDS011;42558;52.388;13.390;2022-08-16T11:38:56;16.53;;;12.73;;
56680;SDS011;42558;52.388;13.390;2022-08-16T11:41:49;15.01;;;13.49;;
56680;SDS011;42558;52.388;13.390;2022-08-16T11:44:40;16.53;;;13.30;;
56680;SDS011;42558;52.388;13.390;2022-08-16T11:47:31;16.53;;;13.68;;
56680;SDS011;42558;52.388;13.390;2022-08-16T11:50:22;17.10;;;14.44;;
56680;SDS011;42558;52.388;13.390;2022-08-16T11:53:15;17.10;;;15.39;;
56680;SDS011;42558;52.388;13.390;2022-08-16T11:56:07;17.86;;;15.77;;
56680;SDS011;42558;52.388;13.390;2022-08-16T11:58:58;17.29;;;15.58;;
56680;SDS011;42558;52.388;13.390;2022-08-16T12:01:49;22.99;;;15.58;;
56680;SDS011;42558;52.388;13.390;2022-08-16T12:04:40;16.72;;;14.06;;
56680;SDS011;42558;52.388;13.390;2022-08-16T12:07:56;15.58;;;13.11;;
56680;SDS011;42558;52.388;13.390;2022-08-16T12:11:14;16.15;;;13.49;;
56680;SDS011;42558;52.388;13.390;2022-08-16T12:14:31;15.77;;;12.92;;
56680;SDS011;42558;52.388;13.390;2022-08-16T12:17:48;15.01;;;13.30;;
56680;SDS011;42558;52.388;13.390;2022-08-16T12:21:05;16.53;;;12.92;;
56680;SDS011;42558;52.388;13.390;2022-08-16T12:24:22;15.58;;;13.11;;
56680;SDS011;42558;52.388;13.390;2022-08-16T12:27:39;15.58;;;12.16;;
56680;SDS011;42558;52.388;13.390;2022-08-16T12:30:57;14.06;;;12.35;;
56680;SDS011;42558;52.388;13.390;2022-08-16T12:34:13;13.87;;;12.35;;
56680;SDS011;42558;52.388;13.390;2022-08-16T12:37:29;21.47;;;13.68;;
56680;SDS011;42558;52.388;13.390;2022-08-16T12:40:47;14.06;;;12.54;;
56680;SDS011;42558;52.388;13.390;2022-08-16T12:44:05;15.20;;;13.49;;
56680;SDS011;42558;52.388;13.390;2022-08-16T12:47:21;16.53;;;13.87;;
56680;SDS011;42558;52.388;13.390;2022-08-16T12:50:37;15.39;;;13.87;;
56680;SDS011;42558;52.388;13.390;2022-08-16T12:53:55;15.96;;;12.54;;
56680;SDS011;42558;52.388;13.390;2022-08-16T12:57:11;14.63;;;12.73;;
56680;SDS011;42558;52.388;13.390;2022-08-16T13:00:29;13.30;;;11.97;;
56680;SDS011;42558;52.388;13.390;2022-08-16T13:03:45;14.82;;;12.16;;
56680;SDS011;42558;52.388;13.390;2022-08-16T13:07:02;13.30;;;11.97;;
56680;SDS011;42558;52.388;13.390;2022-08-16T13:10:20;14.25;;;11.21;;
56680;SDS011;42558;52.388;13.390;2022-08-16T13:13:37;12.54;;;10.26;;
56680;SDS011;42558;52.388;13.390;2022-08-16T13:16:53;14.44;;;10.83;;
56680;SDS011;42558;52.388;13.390;2022-08-16T13:20:19;12.92;;;10.45;;
56680;SDS011;42558;52.388;13.390;2022-08-16T15:40:45;11.02;;;8.36;;
56680;SDS011;42558;52.388;13.390;2022-08-16T15:43:25;11.97;;;8.74;;
56680;SDS011;42558;52.388;13.390;2022-08-16T15:46:07;12.35;;;9.88;;
56680;SDS011;42558;52.388;13.390;2022-08-16T15:49:11;12.92;;;9.12;;
56680;SDS011;42558;52.388;13.390;2022-08-16T15:51:40;25.08;;;9.31;;
56680;SDS011;42558;52.388;13.390;2022-08-16T15:54:10;13.30;;;8.74;;
56680;SDS011;42558;52.388;13.390;2022-08-16T15:56:57;12.73;;;9.12;;
56680;SDS011;42558;52.388;13.390;2022-08-16T15:59:39;12.16;;;9.31;;
56680;SDS011;42558;52.388;13.390;2022-08-16T16:02:16;11.40;;;9.50;;
56680;SDS011;42558;52.388;13.390;2022-08-16T16:04:58;9.88;;;8.55;;
56680;SDS011;42558;52.388;13.390;2022-08-16T16:07:28;11.78;;;8.74;;
56680;SDS011;42558;52.388;13.390;2022-08-16T16:10:01;12.35;;;8.93;;
56680;SDS011;42558;52.388;13.390;2022-08-16T16:12:34;13.30;;;9.31;;
56680;SDS011;42558;52.388;13.390;2022-08-16T16:15:25;12.35;;;8.93;;
56680;SDS011;42558;52.388;13.390;2022-08-16T16:17:55;12.92;;;8.74;;
56680;SDS011;42558;52.388;13.390;2022-08-16T16:20:25;11.21;;;8.74;;
56680;SDS011;42558;52.388;13.390;2022-08-16T16:22:59;12.73;;;8.74;;
56680;SDS011;42558;52.388;13.390;2022-08-16T16:25:37;10.26;;;7.79;;
56680;SDS011;42558;52.388;13.390;2022-08-16T16:28:17;13.68;;;9.12;;
56680;SDS011;42558;52.388;13.390;2022-08-16T16:31:11;12.92;;;9.69;;
56680;SDS011;42558;52.388;13.390;2022-08-16T16:33:42;12.16;;;9.69;;
56680;SDS011;42558;52.388;13.390;2022-08-16T16:36:18;12.35;;;9.88;;
56680;SDS011;42558;52.388;13.390;2022-08-16T16:38:52;11.40;;;9.12;;
56680;SDS011;42558;52.388;13.390;2022-08-16T16:41:22;12.16;;;9.12;;
56680;SDS011;42558;52.388;13.390;2022-08-16T16:43:53;13.87;;;9.50;;
56680;SDS011;42558;52.388;13.390;2022-08-16T16:46:24;12.35;;;9.12;;
56680;SDS011;42558;52.388;13.390;2022-08-16T16:49:10;12.92;;;9.31;;
56680;SDS011;42558;52.388;13.390;2022-08-16T16:51:40;11.97;;;8.36;;
56680;SDS011;42558;52.388;13.390;2022-08-16T16:54:11;12.73;;;9.12;;
56680;SDS011;42558;52.388;13.390;2022-08-16T16:56:52;13.87;;;8.93;;
56680;SDS011;42558;52.388;13.390;2022-08-16T16:59:19;11.78;;;8.74;;
56680;SDS011;42558;52.388;13.390;2022-08-16T17:01:53;12.35;;;8.55;;
56680;SDS011;42558;52.388;13.390;2022-08-16T17:04:41;11.40;;;9.31;;
56680;SDS011;42558;52.388;13.390;2022-08-16T17:07:09;12.92;;;8.55;;
56680;SDS011;42558;52.388;13.390;2022-08-16T17:09:39;12.54;;;9.31;;
56680;SDS011;42558;52.388;13.390;2022-08-16T17:12:10;14.25;;;8.55;;
56680;SDS011;42558;52.388;13.390;2022-08-16T17:14:50;12.73;;;9.31;;
56680;SDS011;42558;52.388;13.390;2022-08-16T17:17:22;12.54;;;8.93;;
56680;SDS011;42558;52.388;13.390;2022-08-16T17:19:50;13.68;;;9.69;;
56680;SDS011;42558;52.388;13.390;2022-08-16T17:22:21;12.92;;;9.69;;
56680;SDS011;42558;52.388;13.390;2022-08-16T17:24:49;22.42;;;9.50;;
56680;SDS011;42558;52.388;13.390;2022-08-16T17:27:22;16.53;;;8.93;;
56680;SDS011;42558;52.388;13.390;2022-08-16T17:30:04;12.16;;;8.74;;
56680;SDS011;42558;52.388;13.390;2022-08-16T17:32:49;12.54;;;8.93;;
56680;SDS011;42558;52.388;13.390;2022-08-16T17:35:38;12.92;;;9.50;;
56680;SDS011;42558;52.388;13.390;2022-08-16T17:38:09;16.34;;;9.50;;
56680;SDS011;42558;52.388;13.390;2022-08-16T17:40:45;16.15;;;8.93;;